sensor_id;sensor_type;location;lat;lon;timestamp;pressure;altitude;pressure_sealevel;temperature;humidity
17593;BME280;8915;51.760;14.300;2022-08-19T00:01:34;99909.78;;;21.41;100.00
17593;BME280;8915;51.760;14.300;2022-08-19T00:04:03;99900.31;;;21.27;100.00
17593;BME280;8915;51.760;14.300;2022-08-19T00:06:31;99906.84;;;21.23;100.00
17593;BME280;8915;51.760;14.300;2022-08-19T00:08:58;99903.22;;;21.24;100.00
17593;BME280;8915;51.760;14.300;2022-08-19T00:11:25;99909.28;;;21.15;100.00
17593;BME280;8915;51.760;14.300;2022-08-19T00:13:55;99909.63;;;21.10;100.00
17593;BME280;8915;51.760;14.300;2022-08-19T00:16:23;99905.81;;;21.03;100.00
17593;BME280;8915;51.760;14.300;2022-08-19T00:18:50;99909.44;;;21.02;100.00
17593;BME280;8915;51.760;14.300;2022-08-19T00:21:16;99919.44;;;20.98;100.00
17593;BME280;8915;51.760;14.300;2022-08-19T00:23:43;99916.19;;;20.95;100.00
17593;BME280;8915;51.760;14.300;2022-08-19T00:26:10;99906.19;;;20.98;100.00
17593;BME280;8915;51.760;14.300;2022-08-19T00:28:37;99909.91;;;20.96;100.00
17593;BME280;8915;51.760;14.300;2022-08-19T00:31:06;99906.56;;;20.94;100.00
17593;BME280;8915;51.760;14.300;2022-08-19T00:33:33;99902.22;;;20.93;100.00
17593;BME280;8915;51.760;14.300;2022-08-19T00:36:02;99894.53;;;20.90;100.00
17593;BME280;8915;51.760;14.300;2022-08-19T00:38:32;99902.47;;;20.90;100.00
17593;BME280;8915;51.760;14.300;2022-08-19T00:40:59;99906.09;;;20.89;100.00
17593;BME280;8915;51.760;14.300;2022-08-19T00:43:27;99897.53;;;20.85;100.00
17593;BME280;8915;51.760;14.300;2022-08-19T00:45:54;99900.91;;;20.87;100.00
17593;BME280;8915;51.760;14.300;2022-08-19T00:48:22;99895.84;;;20.84;100.00
17593;BME280;8915;51.760;14.300;2022-08-19T00:50:50;99898.50;;;20.84;100.00
17593;BME280;8915;51.760;14.300;2022-08-19T00:53:20;99897.53;;;20.85;100.00
17593;BME280;8915;51.760;14.300;2022-08-19T00:55:49;99898.38;;;20.86;100.00
17593;BME280;8915;51.760;14.300;2022-08-19T00:58:20;99895.84;;;20.84;100.00
17593;BME280;8915;51.760;14.300;2022-08-19T01:00:48;99889.59;;;20.85;100.00
17593;BME280;8915;51.760;14.300;2022-08-19T01:03:16;99885.25;;;20.84;100.00
17593;BME280;8915;51.760;14.300;2022-08-19T01:05:47;99884.41;;;20.84;100.00
17593;BME280;8915;51.760;14.300;2022-08-19T01:08:15;99893.19;;;20.84;100.00
17593;BME280;8915;51.760;14.300;2022-08-19T01:10:45;99887.91;;;20.84;100.00
17593;BME280;8915;51.760;14.300;2022-08-19T01:13:14;99880.94;;;20.83;100.00
17593;BME280;8915;51.760;14.300;2022-08-19T01:15:44;99879.47;;;20.79;100.00
17593;BME280;8915;51.760;14.300;2022-08-19T01:18:13;99875.88;;;20.80;100.00
17593;BME280;8915;51.760;14.300;2022-08-19T01:20:41;99879.63;;;20.77;100.00
17593;BME280;8915;51.760;14.300;2022-08-19T01:23:09;99868.69;;;20.71;100.00
17593;BME280;8915;51.760;14.300;2022-08-19T01:25:42;99874.94;;;20.70;100.00
17593;BME280;8915;51.760;14.300;2022-08-19T01:28:15;99872.06;;;20.61;100.00
17593;BME280;8915;51.760;14.300;2022-08-19T01:30:43;99876.88;;;20.56;100.00
17593;BME280;8915;51.760;14.300;2022-08-19T01:33:10;99887.47;;;20.56;100.00
17593;BME280;8915;51.760;14.300;2022-08-19T01:35:37;99886.59;;;20.56;100.00
17593;BME280;8915;51.760;14.300;2022-08-19T01:38:05;99895.63;;;20.53;100.00
17593;BME280;8915;51.760;14.300;2022-08-19T01:40:36;99892.00;;;20.54;100.00
17593;BME280;8915;51.760;14.300;2022-08-19T01:43:03;99897.56;;;20.51;100.00
17593;BME280;8915;51.760;14.300;2022-08-19T01:45:32;99892.50;;;20.48;100.00
17593;BME280;8915;51.760;14.300;2022-08-19T01:48:00;99901.78;;;20.42;100.00
17593;BME280;8915;51.760;14.300;2022-08-19T01:50:26;99894.19;;;20.38;100.00
17593;BME280;8915;51.760;14.300;2022-08-19T01:52:53;99893.00;;;20.31;100.00
17593;BME280;8915;51.760;14.300;2022-08-19T01:55:21;99897.81;;;20.26;100.00
17593;BME280;8915;51.760;14.300;2022-08-19T01:57:52;99894.22;;;20.27;100.00
17593;BME280;8915;51.760;14.300;2022-08-19T02:00:23;99902.50;;;20.22;100.00
17593;BME280;8915;51.760;14.300;2022-08-19T02:02:50;99899.38;;;20.17;100.00
17593;BME280;8915;51.760;14.300;2022-08-19T02:05:16;99889.88;;;20.14;100.00
17593;BME280;8915;51.760;14.300;2022-08-19T02:07:46;99887.81;;;20.07;100.00
17593;BME280;8915;51.760;14.300;2022-08-19T02:10:15;99896.13;;;20.02;100.00
17593;BME280;8915;51.760;14.300;2022-08-19T02:12:42;99895.84;;;19.94;100.00
17593;BME280;8915;51.760;14.300;2022-08-19T02:15:11;99890.06;;;19.89;100.00
17593;BME280;8915;51.760;14.300;2022-08-19T02:17:38;99892.34;;;19.82;100.00
17593;BME280;8915;51.760;14.300;2022-08-19T02:20:06;99892.59;;;19.79;100.00
17593;BME280;8915;51.760;14.300;2022-08-19T02:22:33;99898.22;;;19.74;100.00
17593;BME280;8915;51.760;14.300;2022-08-19T02:25:00;99895.06;;;19.69;100.00
17593;BME280;8915;51.760;14.300;2022-08-19T02:27:27;99889.59;;;19.59;100.00
17593;BME280;8915;51.760;14.300;2022-08-19T02:29:54;99887.81;;;19.60;100.00
17593;BME280;8915;51.760;14.300;2022-08-19T02:32:21;99901.00;;;19.48;100.00
17593;BME280;8915;51.760;14.300;2022-08-19T02:34:48;99897.97;;;19.42;100.00
17593;BME280;8915;51.760;14.300;2022-08-19T02:37:14;99896.78;;;19.46;100.00
17593;BME280;8915;51.760;14.300;2022-08-19T02:39:55;99902.28;;;19.43;100.00
17593;BME280;8915;51.760;14.300;2022-08-19T02:42:21;99905.03;;;19.41;100.00
17593;BME280;8915;51.760;14.300;2022-08-19T02:44:48;99894.94;;;19.35;100.00
17593;BME280;8915;51.760;14.300;2022-08-19T02:47:14;99891.19;;;19.26;100.00
17593;BME280;8915;51.760;14.300;2022-08-19T02:49:42;99893.22;;;19.23;100.00
17593;BME280;8915;51.760;14.300;2022-08-19T02:52:08;99896.19;;;19.18;100.00
17593;BME280;8915;51.760;14.300;2022-08-19T02:54:36;99894.72;;;19.14;100.00
17593;BME280;8915;51.760;14.300;2022-08-19T02:57:04;99903.50;;;19.15;100.00
17593;BME280;8915;51.760;14.300;2022-08-19T02:59:30;99907.31;;;19.10;100.00
17593;BME280;8915;51.760;14.300;2022-08-19T03:01:57;99921.25;;;19.13;100.00
17593;BME280;8915;51.760;14.300;2022-08-19T03:04:23;99922.94;;;19.14;100.00
17593;BME280;8915;51.760;14.300;2022-08-19T03:06:51;99919.47;;;19.13;100.00
17593;BME280;8915;51.760;14.300;2022-08-19T03:09:19;99916.91;;;19.11;100.00
17593;BME280;8915;51.760;14.300;2022-08-19T03:11:46;99924.13;;;19.09;100.00
17593;BME280;8915;51.760;14.300;2022-08-19T03:14:12;99924.34;;;19.06;100.00
17593;BME280;8915;51.760;14.300;2022-08-19T03:16:43;99918.09;;;19.07;100.00
17593;BME280;8915;51.760;14.300;2022-08-19T03:19:10;99915.34;;;19.09;100.00
17593;BME280;8915;51.760;14.300;2022-08-19T03:21:36;99918.94;;;19.08;100.00
17593;BME280;8915;51.760;14.300;2022-08-19T03:24:06;99924.97;;;19.10;100.00
17593;BME280;8915;51.760;14.300;2022-08-19T03:26:33;99923.91;;;19.13;100.00
17593;BME280;8915;51.760;14.300;2022-08-19T03:29:02;99926.34;;;19.16;100.00
17593;BME280;8915;51.760;14.300;2022-08-19T03:31:29;99928.72;;;19.19;100.00
17593;BME280;8915;51.760;14.300;2022-08-19T03:33:56;99918.06;;;19.20;100.00
17593;BME280;8915;51.760;14.300;2022-08-19T03:36:24;99933.78;;;19.22;100.00
17593;BME280;8915;51.760;14.300;2022-08-19T03:38:54;99941.94;;;19.19;100.00
17593;BME280;8915;51.760;14.300;2022-08-19T03:41:24;99941.81;;;19.20;100.00
17593;BME280;8915;51.760;14.300;2022-08-19T03:43:52;99944.72;;;19.17;100.00
17593;BME280;8915;51.760;14.300;2022-08-19T03:46:21;99942.28;;;19.14;100.00
17593;BME280;8915;51.760;14.300;2022-08-19T03:48:50;99941.44;;;19.14;100.00
17593;BME280;8915;51.760;14.300;2022-08-19T03:51:20;99930.13;;;19.11;100.00
17593;BME280;8915;51.760;14.300;2022-08-19T03:53:48;99929.41;;;19.09;100.00
17593;BME280;8915;51.760;14.300;2022-08-19T03:56:15;99938.31;;;19.08;100.00
17593;BME280;8915;51.760;14.300;2022-08-19T03:58:43;99935.53;;;19.10;100.00
17593;BME280;8915;51.760;14.300;2022-08-19T04:01:12;99931.94;;;19.11;100.00
17593;BME280;8915;51.760;14.300;2022-08-19T04:03:39;99925.09;;;19.08;100.00
17593;BME280;8915;51.760;14.300;2022-08-19T04:06:10;99924.22;;;19.08;100.00
17593;BME280;8915;51.760;14.300;2022-08-19T04:08:38;99919.06;;;19.06;100.00
17593;BME280;8915;51.760;14.300;2022-08-19T04:11:06;99930.38;;;19.08;100.00
17593;BME280;8915;51.760;14.300;2022-08-19T04:13:33;99936.38;;;19.10;100.00
17593;BME280;8915;51.760;14.300;2022-08-19T04:16:01;99932.66;;;19.13;100.00
17593;BME280;8915;51.760;14.300;2022-08-19T04:18:28;99938.56;;;19.17;100.00
17593;BME280;8915;51.760;14.300;2022-08-19T04:20:56;99934.53;;;19.24;100.00
17593;BME280;8915;51.760;14.300;2022-08-19T04:23:23;99932.16;;;19.32;100.00
17593;BME280;8915;51.760;14.300;2022-08-19T04:25:50;99929.53;;;19.32;100.00
17593;BME280;8915;51.760;14.300;2022-08-19T04:28:16;99933.72;;;19.35;100.00
17593;BME280;8915;51.760;14.300;2022-08-19T04:30:45;99928.34;;;19.36;100.00
17593;BME280;8915;51.760;14.300;2022-08-19T04:33:16;99939.41;;;19.41;100.00
17593;BME280;8915;51.760;14.300;2022-08-19T04:35:45;99942.06;;;19.41;100.00
17593;BME280;8915;51.760;14.300;2022-08-19T04:38:14;99939.63;;;19.38;100.00
17593;BME280;8915;51.760;14.300;2022-08-19T04:40:42;99942.53;;;19.35;100.00
17593;BME280;8915;51.760;14.300;2022-08-19T04:43:26;99941.22;;;19.41;100.00
17593;BME280;8915;51.760;14.300;2022-08-19T04:45:53;99938.47;;;19.42;100.00
17593;BME280;8915;51.760;14.300;2022-08-19T04:48:22;99931.47;;;19.41;100.00
17593;BME280;8915;51.760;14.300;2022-08-19T04:50:52;99925.25;;;19.42;100.00
17593;BME280;8915;51.760;14.300;2022-08-19T04:53:22;99925.66;;;19.49;100.00
17593;BME280;8915;51.760;14.300;2022-08-19T04:55:49;99940.31;;;19.53;100.00
17593;BME280;8915;51.760;14.300;2022-08-19T04:58:16;99942.16;;;19.64;100.00
17593;BME280;8915;51.760;14.300;2022-08-19T05:00:42;99939.91;;;19.71;100.00
17593;BME280;8915;51.760;14.300;2022-08-19T05:03:09;99941.38;;;19.75;100.00
17593;BME280;8915;51.760;14.300;2022-08-19T05:05:39;99941.25;;;19.76;100.00
17593;BME280;8915;51.760;14.300;2022-08-19T05:08:06;99935.84;;;19.78;100.00
17593;BME280;8915;51.760;14.300;2022-08-19T05:10:34;99932.13;;;19.80;100.00
17593;BME280;8915;51.760;14.300;2022-08-19T05:13:01;99918.06;;;19.80;100.00
17593;BME280;8915;51.760;14.300;2022-08-19T05:15:27;99917.13;;;19.81;100.00
17593;BME280;8915;51.760;14.300;2022-08-19T05:17:54;99923.00;;;19.84;100.00
17593;BME280;8915;51.760;14.300;2022-08-19T05:20:39;99933.59;;;19.96;100.00
17593;BME280;8915;51.760;14.300;2022-08-19T05:23:23;99950.09;;;19.99;100.00
17593;BME280;8915;51.760;14.300;2022-08-19T05:25:50;99946.00;;;20.07;100.00
17593;BME280;8915;51.760;14.300;2022-08-19T05:28:17;99944.56;;;20.02;100.00
17593;BME280;8915;51.760;14.300;2022-08-19T05:30:44;99945.28;;;20.04;100.00
17593;BME280;8915;51.760;14.300;2022-08-19T05:33:11;99946.72;;;20.09;100.00
17593;BME280;8915;51.760;14.300;2022-08-19T05:35:39;99952.03;;;20.09;100.00
17593;BME280;8915;51.760;14.300;2022-08-19T05:38:06;99958.69;;;20.14;100.00
17593;BME280;8915;51.760;14.300;2022-08-19T05:40:33;99958.06;;;20.22;100.00
17593;BME280;8915;51.760;14.300;2022-08-19T05:43:01;99963.47;;;20.20;100.00
17593;BME280;8915;51.760;14.300;2022-08-19T05:45:27;99974.78;;;20.22;100.00
17593;BME280;8915;51.760;14.300;2022-08-19T05:47:54;99971.19;;;20.23;100.00
17593;BME280;8915;51.760;14.300;2022-08-19T05:50:20;99971.69;;;20.29;100.00
17593;BME280;8915;51.760;14.300;2022-08-19T05:52:49;99971.69;;;20.29;100.00
17593;BME280;8915;51.760;14.300;2022-08-19T05:55:15;99979.88;;;20.37;100.00
17593;BME280;8915;51.760;14.300;2022-08-19T05:57:41;99977.69;;;20.42;100.00
17593;BME280;8915;51.760;14.300;2022-08-19T06:00:09;99994.66;;;20.51;100.00
17593;BME280;8915;51.760;14.300;2022-08-19T06:02:37;99989.31;;;20.64;100.00
17593;BME280;8915;51.760;14.300;2022-08-19T06:05:05;100000.50;;;20.78;100.00
17593;BME280;8915;51.760;14.300;2022-08-19T06:07:34;100001.34;;;20.90;100.00
17593;BME280;8915;51.760;14.300;2022-08-19T06:10:02;99997.94;;;20.99;100.00
17593;BME280;8915;51.760;14.300;2022-08-19T06:12:29;100003.09;;;21.12;100.00
17593;BME280;8915;51.760;14.300;2022-08-19T06:14:58;99998.03;;;21.21;100.00
17593;BME280;8915;51.760;14.300;2022-08-19T06:17:25;100009.34;;;21.34;100.00
17593;BME280;8915;51.760;14.300;2022-08-19T06:19:52;100020.78;;;21.34;100.00
17593;BME280;8915;51.760;14.300;2022-08-19T06:22:18;100019.69;;;21.37;100.00
17593;BME280;8915;51.760;14.300;2022-08-19T06:24:45;100017.78;;;21.39;100.00
17593;BME280;8915;51.760;14.300;2022-08-19T06:27:13;100013.19;;;21.41;100.00
17593;BME280;8915;51.760;14.300;2022-08-19T06:29:41;100006.69;;;21.34;100.00
17593;BME280;8915;51.760;14.300;2022-08-19T06:32:08;100011.38;;;21.42;100.00
17593;BME280;8915;51.760;14.300;2022-08-19T06:34:34;100010.78;;;21.38;100.00
17593;BME280;8915;51.760;14.300;2022-08-19T06:37:01;100007.53;;;21.34;100.00
17593;BME280;8915;51.760;14.300;2022-08-19T06:39:30;100012.59;;;21.37;100.00
17593;BME280;8915;51.760;14.300;2022-08-19T06:42:00;100017.50;;;21.42;100.00
17593;BME280;8915;51.760;14.300;2022-08-19T06:44:31;100025.06;;;21.58;100.00
17593;BME280;8915;51.760;14.300;2022-08-19T06:47:01;100038.09;;;21.72;100.00
17593;BME280;8915;51.760;14.300;2022-08-19T06:49:27;100038.59;;;21.87;100.00
17593;BME280;8915;51.760;14.300;2022-08-19T06:51:56;100040.63;;;21.95;100.00
17593;BME280;8915;51.760;14.300;2022-08-19T06:54:24;100052.09;;;21.96;100.00
17593;BME280;8915;51.760;14.300;2022-08-19T06:56:51;100053.63;;;21.98;100.00
17593;BME280;8915;51.760;14.300;2022-08-19T06:59:19;100061.69;;;22.08;100.00
17593;BME280;8915;51.760;14.300;2022-08-19T07:01:48;100046.22;;;22.13;100.00
17593;BME280;8915;51.760;14.300;2022-08-19T07:04:17;100055.09;;;22.23;100.00
17593;BME280;8915;51.760;14.300;2022-08-19T07:06:43;100066.44;;;22.25;100.00
17593;BME280;8915;51.760;14.300;2022-08-19T07:09:13;100076.97;;;22.27;100.00
17593;BME280;8915;51.760;14.300;2022-08-19T07:11:44;100077.19;;;22.24;100.00
17593;BME280;8915;51.760;14.300;2022-08-19T07:14:11;100084.56;;;22.20;100.00
17593;BME280;8915;51.760;14.300;2022-08-19T07:16:39;100078.78;;;22.15;100.00
17593;BME280;8915;51.760;14.300;2022-08-19T07:19:07;100082.53;;;22.12;100.00
17593;BME280;8915;51.760;14.300;2022-08-19T07:21:35;100087.00;;;22.12;100.00
17593;BME280;8915;51.760;14.300;2022-08-19T07:24:02;100092.56;;;22.09;100.00
17593;BME280;8915;51.760;14.300;2022-08-19T07:26:30;100095.16;;;21.99;100.00
17593;BME280;8915;51.760;14.300;2022-08-19T07:28:57;100095.91;;;21.90;100.00
17593;BME280;8915;51.760;14.300;2022-08-19T07:31:26;100103.13;;;21.88;100.00
17593;BME280;8915;51.760;14.300;2022-08-19T07:33:54;100100.41;;;21.78;100.00
17593;BME280;8915;51.760;14.300;2022-08-19T07:36:25;100100.66;;;21.75;100.00
17593;BME280;8915;51.760;14.300;2022-08-19T07:38:53;100089.91;;;21.77;100.00
17593;BME280;8915;51.760;14.300;2022-08-19T07:41:23;100088.09;;;21.77;100.00
17593;BME280;8915;51.760;14.300;2022-08-19T07:43:50;100080.00;;;21.79;100.00
17593;BME280;8915;51.760;14.300;2022-08-19T07:46:17;100090.50;;;21.80;100.00
17593;BME280;8915;51.760;14.300;2022-08-19T07:48:46;100094.69;;;21.83;100.00
17593;BME280;8915;51.760;14.300;2022-08-19T07:51:16;100093.75;;;21.84;100.00
17593;BME280;8915;51.760;14.300;2022-08-19T07:53:44;100096.28;;;21.85;100.00
17593;BME280;8915;51.760;14.300;2022-08-19T07:56:12;100102.66;;;21.83;100.00
17593;BME280;8915;51.760;14.300;2022-08-19T07:58:42;100109.44;;;21.75;100.00
17593;BME280;8915;51.760;14.300;2022-08-19T08:01:10;100114.63;;;21.77;100.00
17593;BME280;8915;51.760;14.300;2022-08-19T08:03:37;100107.88;;;21.73;100.00
17593;BME280;8915;51.760;14.300;2022-08-19T08:06:17;100112.47;;;21.71;100.00
17593;BME280;8915;51.760;14.300;2022-08-19T08:09:04;100119.44;;;21.72;100.00
17593;BME280;8915;51.760;14.300;2022-08-19T08:11:36;100110.78;;;21.70;100.00
17593;BME280;8915;51.760;14.300;2022-08-19T08:14:03;100118.84;;;21.68;100.00
17593;BME280;8915;51.760;14.300;2022-08-19T08:16:30;100115.97;;;21.71;100.00
17593;BME280;8915;51.760;14.300;2022-08-19T08:18:57;100124.88;;;21.70;100.00
17593;BME280;8915;51.760;14.300;2022-08-19T08:21:24;100125.03;;;21.69;100.00
17593;BME280;8915;51.760;14.300;2022-08-19T08:23:51;100128.16;;;21.63;100.00
17593;BME280;8915;51.760;14.300;2022-08-19T08:26:22;100127.44;;;21.61;100.00
17593;BME280;8915;51.760;14.300;2022-08-19T08:28:48;100138.53;;;21.66;100.00
17593;BME280;8915;51.760;14.300;2022-08-19T08:31:15;100128.53;;;21.58;100.00
17593;BME280;8915;51.760;14.300;2022-08-19T08:33:41;100133.97;;;21.57;100.00
17593;BME280;8915;51.760;14.300;2022-08-19T08:36:08;100134.22;;;21.53;100.00
17593;BME280;8915;51.760;14.300;2022-08-19T08:38:35;100129.13;;;21.62;100.00
17593;BME280;8915;51.760;14.300;2022-08-19T08:41:08;100135.03;;;21.54;100.00
17593;BME280;8915;51.760;14.300;2022-08-19T08:43:38;100141.19;;;21.66;100.00
17593;BME280;8915;51.760;14.300;2022-08-19T08:46:12;100145.97;;;21.72;100.00
17593;BME280;8915;51.760;14.300;2022-08-19T08:48:47;100152.63;;;21.78;100.00
17593;BME280;8915;51.760;14.300;2022-08-19T08:51:19;100146.47;;;21.77;100.00
17593;BME280;8915;51.760;14.300;2022-08-19T08:53:49;100146.69;;;21.85;100.00
17593;BME280;8915;51.760;14.300;2022-08-19T08:56:17;100141.34;;;21.97;100.00
17593;BME280;8915;51.760;14.300;2022-08-19T08:58:49;100134.66;;;22.13;100.00
17593;BME280;8915;51.760;14.300;2022-08-19T09:01:17;100135.97;;;22.19;100.00
17593;BME280;8915;51.760;14.300;2022-08-19T09:03:44;100133.31;;;22.30;100.00
17593;BME280;8915;51.760;14.300;2022-08-19T09:06:14;100142.31;;;22.39;100.00
17593;BME280;8915;51.760;14.300;2022-08-19T09:08:55;100147.22;;;22.44;100.00
17593;BME280;8915;51.760;14.300;2022-08-19T09:11:39;100145.69;;;22.62;100.00
17593;BME280;8915;51.760;14.300;2022-08-19T09:14:21;100142.63;;;22.88;100.00
17593;BME280;8915;51.760;14.300;2022-08-19T09:16:49;100136.38;;;23.20;100.00
17593;BME280;8915;51.760;14.300;2022-08-19T09:19:17;100142.75;;;23.38;100.00
17593;BME280;8915;51.760;14.300;2022-08-19T09:21:44;100145.88;;;23.53;100.00
17593;BME280;8915;51.760;14.300;2022-08-19T09:24:10;100139.97;;;23.50;100.00
17593;BME280;8915;51.760;14.300;2022-08-19T09:26:37;100133.69;;;23.51;100.00
17593;BME280;8915;51.760;14.300;2022-08-19T09:29:03;100132.44;;;23.45;100.00
17593;BME280;8915;51.760;14.300;2022-08-19T09:31:32;100131.88;;;23.51;100.00
17593;BME280;8915;51.760;14.300;2022-08-19T09:33:59;100148.09;;;23.48;100.00
17593;BME280;8915;51.760;14.300;2022-08-19T09:36:27;100154.94;;;23.41;100.00
17593;BME280;8915;51.760;14.300;2022-08-19T09:38:58;100153.00;;;23.43;100.00
17593;BME280;8915;51.760;14.300;2022-08-19T09:41:25;100159.41;;;23.40;100.00
17593;BME280;8915;51.760;14.300;2022-08-19T09:43:53;100163.78;;;23.41;100.00
17593;BME280;8915;51.760;14.300;2022-08-19T09:46:22;100163.91;;;23.40;100.00
17593;BME280;8915;51.760;14.300;2022-08-19T09:48:52;100157.56;;;23.31;100.00
17593;BME280;8915;51.760;14.300;2022-08-19T09:51:20;100162.88;;;23.31;100.00
17593;BME280;8915;51.760;14.300;2022-08-19T09:53:48;100153.75;;;23.24;100.00
17593;BME280;8915;51.760;14.300;2022-08-19T09:56:17;100166.16;;;23.14;100.00
17593;BME280;8915;51.760;14.300;2022-08-19T09:58:45;100161.53;;;23.06;100.00
17593;BME280;8915;51.760;14.300;2022-08-19T10:01:16;100146.75;;;23.02;100.00
17593;BME280;8915;51.760;14.300;2022-08-19T10:03:47;100143.88;;;23.05;100.00
17593;BME280;8915;51.760;14.300;2022-08-19T10:06:17;100145.41;;;23.08;100.00
17593;BME280;8915;51.760;14.300;2022-08-19T10:08:44;100155.91;;;23.09;100.00
17593;BME280;8915;51.760;14.300;2022-08-19T10:11:11;100154.97;;;23.10;100.00
17593;BME280;8915;51.760;14.300;2022-08-19T10:13:39;100141.78;;;23.09;100.00
17593;BME280;8915;51.760;14.300;2022-08-19T10:16:10;100140.25;;;23.06;100.00
17593;BME280;8915;51.760;14.300;2022-08-19T10:18:38;100140.28;;;23.16;100.00
17593;BME280;8915;51.760;14.300;2022-08-19T10:21:09;100149.28;;;23.24;100.00
17593;BME280;8915;51.760;14.300;2022-08-19T10:23:39;100143.44;;;23.31;100.00
17593;BME280;8915;51.760;14.300;2022-08-19T10:26:13;100151.69;;;23.37;100.00
17593;BME280;8915;51.760;14.300;2022-08-19T10:28:40;100143.50;;;23.50;100.00
17593;BME280;8915;51.760;14.300;2022-08-19T10:31:09;100146.72;;;23.54;100.00
17593;BME280;8915;51.760;14.300;2022-08-19T10:33:36;100145.91;;;23.63;100.00
17593;BME280;8915;51.760;14.300;2022-08-19T10:36:05;100143.06;;;23.55;100.00
17593;BME280;8915;51.760;14.300;2022-08-19T10:38:32;100143.50;;;23.50;100.00
17593;BME280;8915;51.760;14.300;2022-08-19T10:41:08;100157.38;;;23.54;100.00
17593;BME280;8915;51.760;14.300;2022-08-19T10:43:34;100162.72;;;23.63;100.00
17593;BME280;8915;51.760;14.300;2022-08-19T10:46:04;100167.50;;;23.70;100.00
17593;BME280;8915;51.760;14.300;2022-08-19T10:48:31;100166.81;;;23.77;100.00
17593;BME280;8915;51.760;14.300;2022-08-19T10:50:57;100175.41;;;23.81;100.00
17593;BME280;8915;51.760;14.300;2022-08-19T10:53:41;100179.81;;;23.71;100.00
17593;BME280;8915;51.760;14.300;2022-08-19T10:56:09;100182.47;;;23.61;100.00
17593;BME280;8915;51.760;14.300;2022-08-19T10:58:53;100187.09;;;23.59;100.00
17593;BME280;8915;51.760;14.300;2022-08-19T11:01:23;100194.31;;;23.47;100.00
17593;BME280;8915;51.760;14.300;2022-08-19T11:03:49;100202.59;;;23.54;100.00
17593;BME280;8915;51.760;14.300;2022-08-19T11:06:16;100194.63;;;23.54;100.00
17593;BME280;8915;51.760;14.300;2022-08-19T11:08:42;100196.28;;;23.55;100.00
17593;BME280;8915;51.760;14.300;2022-08-19T11:11:11;100193.38;;;23.58;100.00
17593;BME280;8915;51.760;14.300;2022-08-19T11:13:40;100203.19;;;23.57;100.00
17593;BME280;8915;51.760;14.300;2022-08-19T11:16:10;100199.38;;;23.60;100.00
17593;BME280;8915;51.760;14.300;2022-08-19T11:18:41;100199.25;;;23.61;100.00
17593;BME280;8915;51.760;14.300;2022-08-19T11:21:11;100205.03;;;23.67;100.00
17593;BME280;8915;51.760;14.300;2022-08-19T11:23:38;100209.22;;;23.69;100.00
17593;BME280;8915;51.760;14.300;2022-08-19T11:26:05;100208.38;;;23.59;100.00
17593;BME280;8915;51.760;14.300;2022-08-19T11:28:33;100216.19;;;23.60;100.00
17593;BME280;8915;51.760;14.300;2022-08-19T11:30:59;100221.38;;;23.62;100.00
17593;BME280;8915;51.760;14.300;2022-08-19T11:33:27;100221.34;;;23.52;100.00
17593;BME280;8915;51.760;14.300;2022-08-19T11:35:54;100229.72;;;23.48;100.00
17593;BME280;8915;51.760;14.300;2022-08-19T11:38:20;100237.25;;;23.42;100.00
17593;BME280;8915;51.760;14.300;2022-08-19T11:40:54;100240.47;;;23.36;100.00
17593;BME280;8915;51.760;14.300;2022-08-19T11:43:20;100235.97;;;23.37;100.00
17593;BME280;8915;51.760;14.300;2022-08-19T11:45:48;100240.72;;;23.33;100.00
17593;BME280;8915;51.760;14.300;2022-08-19T11:48:15;100236.34;;;23.32;100.00
17593;BME280;8915;51.760;14.300;2022-08-19T11:50:41;100234.81;;;23.30;100.00
17593;BME280;8915;51.760;14.300;2022-08-19T11:53:08;100238.91;;;23.34;100.00
17593;BME280;8915;51.760;14.300;2022-08-19T11:55:36;100238.78;;;23.35;100.00
17593;BME280;8915;51.760;14.300;2022-08-19T11:58:04;100246.81;;;23.45;100.00
17593;BME280;8915;51.760;14.300;2022-08-19T12:00:31;100248.91;;;23.51;100.00
17593;BME280;8915;51.760;14.300;2022-08-19T12:03:00;100249.38;;;23.56;100.00
17593;BME280;8915;51.760;14.300;2022-08-19T12:05:26;100242.91;;;23.49;100.00
17593;BME280;8915;51.760;14.300;2022-08-19T12:07:53;100250.31;;;23.46;100.00
17593;BME280;8915;51.760;14.300;2022-08-19T12:10:21;100252.50;;;23.40;100.00
17593;BME280;8915;51.760;14.300;2022-08-19T12:12:48;100252.78;;;23.37;100.00
17593;BME280;8915;51.760;14.300;2022-08-19T12:15:15;100248.81;;;23.32;100.00
17593;BME280;8915;51.760;14.300;2022-08-19T12:17:42;100258.75;;;23.30;100.00
17593;BME280;8915;51.760;14.300;2022-08-19T12:20:11;100255.53;;;23.26;100.00
17593;BME280;8915;51.760;14.300;2022-08-19T12:22:41;100255.31;;;23.18;100.00
17593;BME280;8915;51.760;14.300;2022-08-19T12:25:09;100256.44;;;23.15;100.00
17593;BME280;8915;51.760;14.300;2022-08-19T12:27:36;100249.34;;;23.04;100.00
17593;BME280;8915;51.760;14.300;2022-08-19T12:30:03;100250.09;;;23.06;100.00
17593;BME280;8915;51.760;14.300;2022-08-19T12:32:29;100247.31;;;23.08;100.00
17593;BME280;8915;51.760;14.300;2022-08-19T12:34:55;100246.31;;;23.09;100.00
17593;BME280;8915;51.760;14.300;2022-08-19T12:37:23;100242.94;;;23.07;100.00
17593;BME280;8915;51.760;14.300;2022-08-19T12:39:50;100251.13;;;23.04;100.00
17593;BME280;8915;51.760;14.300;2022-08-19T12:42:16;100258.25;;;23.15;100.00
17593;BME280;8915;51.760;14.300;2022-08-19T12:44:43;100257.28;;;23.16;100.00
17593;BME280;8915;51.760;14.300;2022-08-19T12:47:12;100260.47;;;23.10;100.00
17593;BME280;8915;51.760;14.300;2022-08-19T12:49:40;100263.13;;;22.98;100.00
17593;BME280;8915;51.760;14.300;2022-08-19T12:52:08;100266.56;;;22.89;100.00